createdAt,value
2016-05-02T00:00:53.274Z,23.7
2016-05-02T00:01:53.293Z,23.75
2016-05-02T00:02:53.436Z,23.73
2016-05-02T00:03:53.455Z,23.72
2016-05-02T00:04:53.457Z,23.73
2016-05-02T00:05:53.460Z,23.65
2016-05-02T00:06:53.307Z,23.63
2016-05-02T00:07:53.309Z,23.7
2016-05-02T00:08:53.468Z,23.69
2016-05-02T00:09:53.315Z,23.75
2016-05-02T00:10:53.489Z,23.66
2016-05-02T00:11:53.492Z,23.69
2016-05-02T00:12:53.495Z,23.78
2016-05-02T00:13:53.356Z,23.66
2016-05-02T00:14:53.514Z,23.69
2016-05-02T00:15:53.518Z,23.69
2016-05-02T00:16:53.537Z,23.75
2016-05-02T00:17:53.523Z,23.76
2016-05-02T00:18:53.542Z,23.69
2016-05-02T00:19:53.544Z,23.73
2016-05-02T00:20:53.547Z,23.69
2016-05-02T00:21:53.549Z,23.72
2016-05-02T00:22:53.553Z,23.69
2016-05-02T00:23:53.555Z,23.68
2016-05-02T00:24:53.417Z,23.7
2016-05-02T00:25:53.576Z,23.69
2016-05-02T00:26:53.578Z,23.76
2016-05-02T00:27:53.580Z,23.69
2016-05-02T00:28:53.583Z,23.69
2016-05-02T00:29:53.587Z,23.68
2016-05-02T00:30:53.449Z,23.68
2016-05-02T00:31:53.608Z,23.7
2016-05-02T00:32:53.610Z,23.75
2016-05-02T00:33:53.629Z,23.7
2016-05-02T00:34:53.459Z,23.69
2016-05-02T00:35:53.634Z,23.75
2016-05-02T00:36:53.637Z,23.69
2016-05-02T00:37:53.640Z,23.66
2016-05-02T00:38:53.485Z,23.68
2016-05-02T00:39:53.488Z,23.75
2016-05-02T00:40:53.506Z,23.69
2016-05-02T00:41:53.651Z,23.69
2016-05-02T00:42:53.668Z,23.66
2016-05-02T00:43:53.515Z,23.72
2016-05-02T00:44:53.673Z,23.7
2016-05-02T00:45:53.692Z,23.72
2016-05-02T00:46:53.679Z,23.73
2016-05-02T00:47:53.541Z,23.66
2016-05-02T00:48:53.700Z,23.72
2016-05-02T00:49:53.703Z,23.68
2016-05-02T00:50:55.409Z,23.72
2016-05-02T00:51:53.567Z,23.76
2016-05-02T00:52:53.711Z,23.63
2016-05-02T00:53:53.714Z,23.61
2016-05-02T00:54:53.732Z,23.68
2016-05-02T00:55:53.735Z,23.65
2016-05-02T00:56:53.738Z,23.65
2016-05-02T00:57:53.740Z,23.66
2016-05-02T00:58:53.743Z,23.73
2016-05-02T00:59:53.605Z,23.76
2016-05-02T01:00:53.607Z,23.66
2016-05-02T01:01:53.766Z,23.66
2016-05-02T01:02:53.763Z,23.63
2016-05-02T01:03:53.825Z,23.72
2016-05-02T01:04:53.888Z,23.57
2016-05-02T01:05:53.935Z,23.61
2016-05-02T01:06:53.825Z,23.75
2016-05-02T01:07:54.022Z,23.58
2016-05-02T01:08:54.041Z,23.58
2016-05-02T01:09:53.904Z,23.65
2016-05-02T01:10:54.094Z,23.65
2016-05-02T01:11:53.957Z,23.73
2016-05-02T01:12:54.130Z,23.55
2016-05-02T01:13:54.138Z,23.58
2016-05-02T01:14:54.146Z,23.66
2016-05-02T01:15:54.171Z,23.57
2016-05-02T01:16:54.180Z,23.65
2016-05-02T01:17:54.187Z,23.65
2016-05-02T01:18:54.192Z,23.65
2016-05-02T01:19:54.196Z,23.76
2016-05-02T01:20:54.451Z,23.76
2016-05-02T01:21:54.221Z,23.69
2016-05-02T01:22:54.069Z,23.73
2016-05-02T01:23:54.229Z,23.61
2016-05-02T01:24:54.076Z,23.66
2016-05-02T01:25:54.112Z,23.66
2016-05-02T01:26:54.239Z,23.8
2016-05-02T01:27:54.243Z,23.76
2016-05-02T01:28:54.261Z,23.78
2016-05-02T01:29:54.124Z,23.73
2016-05-02T01:30:54.127Z,23.65
2016-05-02T01:31:54.881Z,23.72
2016-05-02T01:32:54.133Z,23.78
2016-05-02T01:33:54.292Z,23.73
2016-05-02T01:34:54.139Z,23.78
2016-05-02T01:35:54.313Z,23.78
2016-05-02T01:36:54.316Z,23.73
2016-05-02T01:37:54.303Z,23.76
2016-05-02T01:38:54.165Z,23.75
2016-05-02T01:39:54.152Z,23.79
2016-05-02T01:40:54.327Z,23.79
2016-05-02T01:41:54.329Z,23.83
2016-05-02T01:42:54.332Z,23.78
2016-05-02T01:43:54.350Z,23.84
2016-05-02T01:44:54.181Z,23.73
2016-05-02T01:45:54.371Z,23.85
2016-05-02T01:46:54.358Z,23.8
2016-05-02T01:47:54.377Z,23.84
2016-05-02T01:48:54.363Z,23.79
2016-05-02T01:49:54.366Z,23.88
2016-05-02T01:50:54.385Z,23.8
2016-05-02T01:51:54.388Z,23.87
2016-05-02T01:52:54.390Z,23.78
2016-05-02T01:53:54.393Z,23.93
2016-05-02T01:54:54.410Z,23.87
2016-05-02T01:55:54.413Z,23.88
2016-05-02T01:56:54.416Z,23.88
2016-05-02T01:57:54.404Z,23.94
2016-05-02T01:58:54.421Z,23.87
2016-05-02T01:59:54.268Z,23.91
2016-05-02T02:00:54.427Z,23.87
2016-05-02T02:01:54.445Z,23.93
2016-05-02T02:02:54.448Z,23.88
2016-05-02T02:03:54.467Z,23.93
2016-05-02T02:04:54.453Z,23.91
2016-05-02T02:05:54.503Z,23.88
2016-05-02T02:06:54.475Z,23.88
2016-05-02T02:07:54.477Z,23.83
2016-05-02T02:08:54.323Z,23.88
2016-05-02T02:09:54.483Z,23.9
2016-05-02T02:10:54.485Z,23.94
2016-05-02T02:11:54.331Z,23.97
2016-05-02T02:12:54.506Z,23.94
2016-05-02T02:13:54.509Z,23.94
2016-05-02T02:14:54.527Z,24
2016-05-02T02:15:54.514Z,23.97
2016-05-02T02:16:54.516Z,23.95
2016-05-02T02:17:54.519Z,23.97
2016-05-02T02:18:54.538Z,24.03
2016-05-02T02:19:54.541Z,23.98
2016-05-02T02:20:54.543Z,24.05
2016-05-02T02:21:54.546Z,23.95
2016-05-02T02:22:54.565Z,24.06
2016-05-02T02:23:54.563Z,23.98
2016-05-02T02:24:54.608Z,23.94
2016-05-02T02:25:54.577Z,24.06
2016-05-02T02:26:54.851Z,23.98
2016-05-02T02:27:54.666Z,24
2016-05-02T02:28:54.654Z,24.03
2016-05-02T02:29:54.593Z,24.02
2016-05-02T02:30:54.471Z,24.03
2016-05-02T02:31:54.443Z,24.02
2016-05-02T02:32:54.602Z,23.95
2016-05-02T02:33:54.464Z,23.97
2016-05-02T02:34:54.623Z,24.03
2016-05-02T02:35:54.500Z,24.02
2016-05-02T02:36:54.628Z,24.06
2016-05-02T02:37:54.631Z,23.93
2016-05-02T02:38:54.649Z,24.02
2016-05-02T02:39:54.652Z,24
2016-05-02T02:40:54.655Z,24.05
2016-05-02T02:41:54.658Z,24.03
2016-05-02T02:42:54.675Z,23.98
2016-05-02T02:43:54.663Z,24.03
2016-05-02T02:44:54.665Z,24.02
2016-05-02T02:45:54.683Z,24
2016-05-02T02:46:54.686Z,24.03
2016-05-02T02:47:54.689Z,24
2016-05-02T02:48:54.707Z,24
2016-05-02T02:49:54.710Z,24
2016-05-02T02:50:55.478Z,24.03
2016-05-02T02:51:54.716Z,24.02
2016-05-02T02:52:54.562Z,24
2016-05-02T02:53:54.721Z,24.03
2016-05-02T02:54:54.583Z,24.03
2016-05-02T02:55:54.570Z,24.06
2016-05-02T02:56:54.744Z,24.02
2016-05-02T02:57:54.746Z,24.02
2016-05-02T02:58:54.749Z,23.98
2016-05-02T02:59:54.753Z,24
2016-05-02T03:00:54.755Z,24.06
2016-05-02T03:01:54.601Z,23.98
2016-05-02T03:02:54.776Z,24
2016-05-02T03:03:54.779Z,24.06
2016-05-02T03:04:54.626Z,24.03
2016-05-02T03:05:56.598Z,23.98
2016-05-02T03:06:54.787Z,24
2016-05-02T03:07:54.806Z,24
2016-05-02T03:08:54.809Z,23.97
2016-05-02T03:09:54.654Z,24.03
2016-05-02T03:10:54.829Z,23.97
2016-05-02T03:11:54.832Z,23.95
2016-05-02T03:12:54.679Z,23.93
2016-05-02T03:13:54.837Z,23.94
2016-05-02T03:14:54.839Z,23.93
2016-05-02T03:15:54.842Z,24
2016-05-02T03:16:54.689Z,23.98
2016-05-02T03:17:54.708Z,23.95
2016-05-02T03:18:54.866Z,23.91
2016-05-02T03:19:54.853Z,23.94
2016-05-02T03:20:55.355Z,23.9
2016-05-02T03:21:54.891Z,23.91
2016-05-02T03:22:54.736Z,23.91
2016-05-02T03:23:54.896Z,23.94
2016-05-02T03:24:54.788Z,23.94
2016-05-02T03:25:54.744Z,23.94
2016-05-02T03:26:54.904Z,23.94
2016-05-02T03:27:54.906Z,23.97
2016-05-02T03:28:54.924Z,23.97
2016-05-02T03:29:54.912Z,23.91
2016-05-02T03:30:54.930Z,23.95
2016-05-02T03:31:54.807Z,23.9
2016-05-02T03:32:54.935Z,23.91
2016-05-02T03:33:54.797Z,23.98
2016-05-02T03:34:55.003Z,23.93
2016-05-02T03:35:54.803Z,23.91
2016-05-02T03:36:54.821Z,23.88
2016-05-02T03:37:54.964Z,23.94
2016-05-02T03:38:54.967Z,23.91
2016-05-02T03:39:54.970Z,23.79
2016-05-02T03:40:55.081Z,23.87
2016-05-02T03:41:54.990Z,23.94
2016-05-02T03:42:54.992Z,23.79
2016-05-02T03:43:54.839Z,23.87
2016-05-02T03:44:54.998Z,23.88
2016-05-02T03:45:55.001Z,23.87
2016-05-02T03:46:55.020Z,23.87
2016-05-02T03:47:54.850Z,23.93
2016-05-02T03:48:55.025Z,23.88
2016-05-02T03:49:54.871Z,23.9
2016-05-02T03:50:55.296Z,23.91
2016-05-02T03:51:54.877Z,23.94
2016-05-02T03:52:55.052Z,23.93
2016-05-02T03:53:55.054Z,23.95
2016-05-02T03:54:55.057Z,23.93
2016-05-02T03:55:55.060Z,24.03
2016-05-02T03:56:55.063Z,23.98
2016-05-02T03:57:55.066Z,24.06
2016-05-02T03:58:54.927Z,23.98
2016-05-02T03:59:55.086Z,23.98
2016-05-02T04:00:55.088Z,23.95
2016-05-02T04:01:55.107Z,23.95
2016-05-02T04:02:55.110Z,23.91
2016-05-02T04:03:55.113Z,23.98
2016-05-02T04:04:55.115Z,24.03
2016-05-02T04:05:55.149Z,23.98
2016-05-02T04:06:55.121Z,24
2016-05-02T04:07:55.123Z,24.06
2016-05-02T04:08:55.126Z,24.06
2016-05-02T04:09:55.128Z,23.97
2016-05-02T04:10:55.147Z,24
2016-05-02T04:11:55.165Z,23.94
2016-05-02T04:12:55.028Z,24.03
2016-05-02T04:13:54.998Z,24.03
2016-05-02T04:14:55.158Z,24
2016-05-02T04:15:55.176Z,24.05
2016-05-02T04:16:55.178Z,24.03
2016-05-02T04:17:55.197Z,23.98
2016-05-02T04:18:55.200Z,24
2016-05-02T04:19:55.202Z,24.05
2016-05-02T04:20:54.908Z,24.06
2016-05-02T04:21:55.052Z,24.09
2016-05-02T04:22:55.054Z,24.05
2016-05-02T04:23:55.213Z,24.12
2016-05-02T04:24:55.216Z,24.09
2016-05-02T04:25:55.062Z,24.06
2016-05-02T04:26:55.221Z,24.02
2016-05-02T04:27:55.239Z,24
2016-05-02T04:28:55.085Z,24.05
2016-05-02T04:29:55.244Z,24.05
2016-05-02T04:30:55.247Z,24.06
2016-05-02T04:31:55.265Z,23.97
2016-05-02T04:32:55.252Z,23.94
2016-05-02T04:33:55.271Z,24.02
2016-05-02T04:34:55.118Z,24.05
2016-05-02T04:35:55.307Z,23.94
2016-05-02T04:36:55.295Z,23.95
2016-05-02T04:37:55.282Z,24
2016-05-02T04:38:55.316Z,23.95
2016-05-02T04:39:55.303Z,24.05
2016-05-02T04:40:55.305Z,23.93
2016-05-02T04:41:55.011Z,23.97
2016-05-02T04:42:55.155Z,23.94
2016-05-02T04:43:55.173Z,23.83
2016-05-02T04:44:55.332Z,23.78
2016-05-02T04:45:55.334Z,23.88
2016-05-02T04:46:55.337Z,23.88
2016-05-02T04:47:55.184Z,23.94
2016-05-02T04:48:55.358Z,23.94
2016-05-02T04:49:55.361Z,23.88
2016-05-02T04:50:55.114Z,23.95
2016-05-02T04:51:55.210Z,23.94
2016-05-02T04:52:55.385Z,23.91
2016-05-02T04:53:55.231Z,23.87
2016-05-02T04:54:55.233Z,23.91
2016-05-02T04:55:55.236Z,23.9
2016-05-02T04:56:55.396Z,23.91
2016-05-02T04:57:55.399Z,23.91
2016-05-02T04:58:55.260Z,23.88
2016-05-02T04:59:55.419Z,23.95
2016-05-02T05:00:55.422Z,23.94
2016-05-02T05:01:55.424Z,23.94
2016-05-02T05:02:55.443Z,24.05
2016-05-02T05:03:55.446Z,23.97
2016-05-02T05:04:55.292Z,23.97
2016-05-02T05:05:55.576Z,24.06
2016-05-02T05:06:55.454Z,23.97
2016-05-02T05:07:55.457Z,23.98
2016-05-02T05:08:55.491Z,24
2016-05-02T05:09:55.181Z,24
2016-05-02T05:10:55.340Z,23.97
2016-05-02T05:11:55.342Z,24.06
2016-05-02T05:12:55.501Z,24.02
2016-05-02T05:13:55.520Z,24.03
2016-05-02T05:14:55.507Z,24.03
2016-05-02T05:15:55.368Z,24
2016-05-02T05:16:55.371Z,24
2016-05-02T05:17:55.546Z,23.97
2016-05-02T05:18:55.548Z,24.02
2016-05-02T05:19:55.551Z,24
2016-05-02T05:20:55.413Z,23.95
2016-05-02T05:21:55.588Z,24
2016-05-02T05:22:55.575Z,24
2016-05-02T05:23:55.422Z,23.97
2016-05-02T05:24:55.596Z,24
2016-05-02T05:25:55.599Z,24.02
2016-05-02T05:26:55.602Z,24.02
2016-05-02T05:27:55.619Z,23.98
2016-05-02T05:28:55.622Z,24
2016-05-02T05:29:55.625Z,24
2016-05-02T05:30:55.644Z,24.03
2016-05-02T05:31:55.630Z,24.1
2016-05-02T05:32:55.649Z,24.08
2016-05-02T05:33:55.510Z,24.08
2016-05-02T05:34:55.513Z,24.03
2016-05-02T05:35:55.516Z,24.06
2016-05-02T05:36:55.674Z,24.02
2016-05-02T05:37:55.677Z,24.13
2016-05-02T05:38:55.540Z,24.16
2016-05-02T05:39:55.698Z,24.16
2016-05-02T05:40:55.718Z,24.16
2016-05-02T05:41:55.720Z,24.16
2016-05-02T05:42:55.722Z,24.21
2016-05-02T05:43:55.725Z,24.2
2016-05-02T05:44:55.587Z,24.2
2016-05-02T05:45:55.746Z,24.22
2016-05-02T05:46:55.764Z,24.24
2016-05-02T05:47:55.767Z,24.24
2016-05-02T05:48:55.629Z,24.24
2016-05-02T05:49:55.632Z,24.18
2016-05-02T05:50:55.478Z,24.15
2016-05-02T05:51:55.481Z,24.22
2016-05-02T05:52:55.671Z,24.22
2016-05-02T05:53:55.830Z,24.22
2016-05-02T05:54:55.817Z,24.24
2016-05-02T05:55:55.836Z,24.18
2016-05-02T05:56:55.839Z,24.25
2016-05-02T05:57:55.841Z,24.21
2016-05-02T05:58:55.843Z,24.25
2016-05-02T05:59:55.861Z,24.2
2016-05-02T06:00:55.864Z,24.21
2016-05-02T06:01:55.727Z,24.2
2016-05-02T06:02:55.869Z,24.25
2016-05-02T06:03:55.732Z,24.34
2016-05-02T06:04:55.891Z,24.28
2016-05-02T06:05:55.768Z,24.31
2016-05-02T06:06:55.771Z,24.39
2016-05-02T06:07:55.774Z,24.27
2016-05-02T06:08:55.933Z,24.37
2016-05-02T06:09:55.936Z,24.35
2016-05-02T06:10:55.954Z,24.3
2016-05-02T06:11:55.956Z,24.34
2016-05-02T06:12:55.818Z,24.39
2016-05-02T06:13:55.978Z,24.39
2016-05-02T06:14:55.980Z,24.42
2016-05-02T06:15:55.983Z,24.52
2016-05-02T06:16:56.001Z,24.52
2016-05-02T06:17:56.020Z,24.58
2016-05-02T06:18:56.006Z,24.53
2016-05-02T06:19:56.040Z,24.6
2016-05-02T06:20:56.042Z,24.62
2016-05-02T06:21:56.045Z,24.62
2016-05-02T06:22:56.100Z,24.68
2016-05-02T06:23:56.055Z,24.67
2016-05-02T06:24:56.059Z,24.78
2016-05-02T06:25:56.077Z,24.69
2016-05-02T06:26:55.924Z,24.77
2016-05-02T06:27:56.098Z,24.73
2016-05-02T06:28:56.101Z,24.8
2016-05-02T06:29:55.947Z,24.77
2016-05-02T06:30:55.966Z,24.77
2016-05-02T06:31:56.124Z,24.77
2016-05-02T06:32:56.127Z,24.71
2016-05-02T06:33:56.146Z,24.73
2016-05-02T06:34:56.163Z,24.77
2016-05-02T06:35:57.292Z,24.73
2016-05-02T06:36:56.185Z,24.78
2016-05-02T06:37:56.016Z,24.77
2016-05-02T06:38:56.190Z,24.8
2016-05-02T06:39:56.209Z,24.8
2016-05-02T06:40:56.212Z,24.73
2016-05-02T06:41:56.215Z,24.69
2016-05-02T06:42:56.092Z,24.77
2016-05-02T06:43:56.235Z,24.67
2016-05-02T06:44:56.253Z,24.73
2016-05-02T06:45:56.256Z,24.76
2016-05-02T06:46:56.274Z,24.71
2016-05-02T06:47:56.278Z,24.81
2016-05-02T06:48:56.280Z,24.83
2016-05-02T06:49:56.298Z,24.83
2016-05-02T06:50:56.317Z,24.81
2016-05-02T06:51:56.163Z,24.8
2016-05-02T06:52:56.165Z,24.85
2016-05-02T06:53:56.183Z,24.85
2016-05-02T06:54:56.342Z,24.84
2016-05-02T06:55:56.361Z,24.84
2016-05-02T06:56:56.379Z,24.84
2016-05-02T06:57:56.366Z,24.93
2016-05-02T06:58:56.385Z,24.81
2016-05-02T06:59:56.403Z,24.9
2016-05-02T07:00:56.405Z,24.83
2016-05-02T07:01:56.408Z,24.91
2016-05-02T07:02:56.427Z,24.93
2016-05-02T07:03:56.430Z,24.98
2016-05-02T07:04:56.432Z,24.96
2016-05-02T07:05:56.451Z,24.93
2016-05-02T07:06:56.469Z,24.87
2016-05-02T07:07:56.315Z,25
2016-05-02T07:08:56.334Z,24.95
2016-05-02T07:09:56.493Z,24.98
2016-05-02T07:10:56.510Z,25.03
2016-05-02T07:11:56.513Z,25.02
2016-05-02T07:12:56.532Z,25.02
2016-05-02T07:13:56.534Z,24.95
2016-05-02T07:14:56.537Z,24.96
2016-05-02T07:15:56.555Z,24.93
2016-05-02T07:16:56.574Z,24.85
2016-05-02T07:17:56.576Z,24.87
2016-05-02T07:18:56.579Z,24.81
2016-05-02T07:19:56.613Z,24.58
2016-05-02T07:20:57.647Z,24.47
2016-05-02T07:21:56.619Z,24.3
2016-05-02T07:22:56.464Z,24.31
2016-05-02T07:23:56.640Z,24.3
2016-05-02T07:24:56.642Z,24.21
2016-05-02T07:25:56.505Z,24.21
2016-05-02T07:26:56.664Z,24.21
2016-05-02T07:27:56.681Z,24.24
2016-05-02T07:28:56.513Z,24.31
2016-05-02T07:29:56.686Z,24.28
2016-05-02T07:30:56.689Z,24.35
2016-05-02T07:31:56.535Z,24.5
2016-05-02T07:32:56.710Z,24.52
2016-05-02T07:33:56.713Z,24.64
2016-05-02T07:34:56.716Z,24.76
2016-05-02T07:35:56.734Z,24.69
2016-05-02T07:36:56.752Z,24.85
2016-05-02T07:37:56.598Z,24.87
2016-05-02T07:38:56.758Z,24.91
2016-05-02T07:39:56.760Z,24.96
2016-05-02T07:40:56.451Z,25.03
2016-05-02T07:41:56.782Z,25.14
2016-05-02T07:42:56.785Z,25.17
2016-05-02T07:43:56.803Z,25.13
2016-05-02T07:44:56.806Z,25.25
2016-05-02T07:45:56.809Z,25.23
2016-05-02T07:46:56.670Z,25.28
2016-05-02T07:47:56.829Z,25.24
2016-05-02T07:48:56.675Z,25.24
2016-05-02T07:49:56.850Z,25.35
2016-05-02T07:50:57.697Z,25.36
2016-05-02T07:51:56.887Z,25.42
2016-05-02T07:52:56.858Z,25.33
2016-05-02T07:53:56.876Z,25.45
2016-05-02T07:54:56.878Z,25.43
2016-05-02T07:55:56.725Z,25.42
2016-05-02T07:56:56.744Z,25.47
2016-05-02T07:57:56.903Z,25.51
2016-05-02T07:58:56.889Z,25.5
2016-05-02T07:59:56.752Z,25.46
2016-05-02T08:00:56.911Z,25.58
2016-05-02T08:01:56.757Z,25.47
2016-05-02T08:02:56.775Z,25.55
2016-05-02T08:03:56.935Z,25.47
2016-05-02T08:04:56.937Z,25.54
2016-05-02T08:05:56.799Z,25.5
2016-05-02T08:06:56.943Z,25.5
2016-05-02T08:07:56.961Z,25.47
2016-05-02T08:08:56.980Z,25.46
2016-05-02T08:09:56.825Z,25.47
2016-05-02T08:10:56.985Z,25.52
2016-05-02T08:11:56.987Z,25.51
2016-05-02T08:12:56.990Z,25.5
2016-05-02T08:13:57.009Z,25.55
2016-05-02T08:14:57.012Z,25.55
2016-05-02T08:15:56.701Z,25.61
2016-05-02T08:16:57.031Z,25.51
2016-05-02T08:17:57.034Z,25.52
2016-05-02T08:18:57.037Z,25.47
2016-05-02T08:19:57.040Z,25.47
2016-05-02T08:20:56.903Z,25.46
2016-05-02T08:21:57.045Z,25.42
2016-05-02T08:22:57.047Z,25.4
2016-05-02T08:23:57.082Z,25.45
2016-05-02T08:24:57.084Z,25.46
2016-05-02T08:25:57.087Z,25.54
2016-05-02T08:26:56.950Z,25.5
2016-05-02T08:27:57.108Z,25.54
2016-05-02T08:28:57.111Z,25.52
2016-05-02T08:29:57.130Z,25.47
2016-05-02T08:30:56.960Z,25.46
2016-05-02T08:31:56.978Z,25.46
2016-05-02T08:32:56.981Z,25.45
2016-05-02T08:33:56.983Z,25.43
2016-05-02T08:34:57.143Z,25.4
2016-05-02T08:35:57.161Z,25.39
2016-05-02T08:36:57.538Z,25.33
2016-05-02T08:37:57.027Z,25.38
2016-05-02T08:38:57.169Z,25.38
2016-05-02T08:39:57.171Z,25.38
2016-05-02T08:40:57.174Z,25.3
2016-05-02T08:41:57.193Z,25.45
2016-05-02T08:42:57.196Z,25.4
2016-05-02T08:43:57.198Z,25.15
2016-05-02T08:44:57.217Z,25.08
2016-05-02T08:45:57.220Z,25.1
2016-05-02T08:46:57.207Z,25.09
2016-05-02T08:47:57.209Z,25.09
2016-05-02T08:48:57.212Z,25.05
2016-05-02T08:49:57.308Z,25.09
2016-05-02T08:50:57.217Z,24.78
2016-05-02T08:51:57.220Z,24.77
2016-05-02T08:52:57.223Z,24.32
2016-05-02T08:53:57.225Z,24.6
2016-05-02T08:54:57.227Z,24.21
2016-05-02T08:55:57.075Z,24.13
2016-05-02T08:56:57.234Z,24.22
2016-05-02T08:57:57.252Z,24.24
2016-05-02T08:58:57.083Z,24.64
2016-05-02T08:59:57.242Z,24.84
2016-05-02T09:00:57.260Z,24.2
2016-05-02T09:01:57.247Z,23.65
2016-05-02T09:02:57.109Z,23.25
2016-05-02T09:03:57.252Z,23.39
2016-05-02T09:04:57.114Z,23.76
2016-05-02T09:05:57.274Z,23.97
2016-05-02T09:06:57.276Z,23.94
2016-05-02T09:07:57.279Z,24.03
2016-05-02T09:08:57.282Z,23.93
2016-05-02T09:09:57.284Z,24.1
2016-05-02T09:10:57.302Z,24.25
2016-05-02T09:11:57.335Z,24.3
2016-05-02T09:12:57.307Z,24.39
2016-05-02T09:13:58.029Z,24.42
2016-05-02T09:14:57.343Z,24.35
2016-05-02T09:15:57.175Z,24.42
2016-05-02T09:16:57.334Z,24.32
2016-05-02T09:17:57.321Z,24.37
2016-05-02T09:18:57.339Z,24.57
2016-05-02T09:19:57.342Z,24.3
2016-05-02T09:20:57.345Z,24.35
2016-05-02T09:21:57.348Z,24.5
2016-05-02T09:22:57.194Z,24.49
2016-05-02T09:23:57.368Z,24.03
2016-05-02T09:24:57.214Z,23.88
2016-05-02T09:25:57.203Z,24.13
2016-05-02T09:26:57.267Z,24.24
2016-05-02T09:27:57.223Z,24.27
2016-05-02T09:28:57.382Z,24.32
2016-05-02T09:29:57.431Z,24.35
2016-05-02T09:30:57.386Z,24.43
2016-05-02T09:31:57.405Z,24.5
2016-05-02T09:32:57.253Z,24.77
2016-05-02T09:33:57.411Z,24.67
2016-05-02T09:34:57.429Z,24.81
2016-05-02T09:35:57.433Z,24.52
2016-05-02T09:36:57.294Z,24.73
2016-05-02T09:37:57.437Z,24.65
2016-05-02T09:38:57.284Z,24.77
2016-05-02T09:39:57.286Z,24.76
2016-05-02T09:40:57.445Z,24.49
2016-05-02T09:41:57.464Z,24.35
2016-05-02T09:42:57.294Z,24.62
2016-05-02T09:43:57.468Z,23.95
2016-05-02T09:44:57.300Z,23.7
2016-05-02T09:45:57.459Z,23.95
2016-05-02T09:46:57.462Z,24.08
2016-05-02T09:47:57.465Z,24.4
2016-05-02T09:48:57.451Z,24.1
2016-05-02T09:49:57.470Z,23.97
2016-05-02T09:50:57.472Z,24
2016-05-02T09:51:57.491Z,24.32
2016-05-02T09:52:57.478Z,23.94
2016-05-02T09:53:57.481Z,23.63
2016-05-02T09:54:57.483Z,23.22
2016-05-02T09:55:57.486Z,23.19
2016-05-02T09:56:57.488Z,23.28
2016-05-02T09:57:57.491Z,23.47
2016-05-02T09:58:57.494Z,23.32
2016-05-02T09:59:57.496Z,23.33
2016-05-02T10:00:57.499Z,23.13
2016-05-02T10:01:57.517Z,23.23
2016-05-02T10:02:57.505Z,23.5
2016-05-02T10:03:57.523Z,23.65
2016-05-02T10:04:57.510Z,23.83
2016-05-02T10:05:57.513Z,23.83
2016-05-02T10:06:57.718Z,23.73
2016-05-02T10:07:57.377Z,23.58
2016-05-02T10:08:57.553Z,23.23
2016-05-02T10:09:57.583Z,23.01
2016-05-02T10:10:57.644Z,23.17
2016-05-02T10:11:57.690Z,23.28
2016-05-02T10:12:57.736Z,23.87
2016-05-02T10:13:57.771Z,23.58
2016-05-02T10:14:57.633Z,23.46
2016-05-02T10:15:57.824Z,23.33
2016-05-02T10:16:57.842Z,23.38
2016-05-02T10:17:57.860Z,23.63
2016-05-02T10:18:57.859Z,23.5
2016-05-02T10:19:57.867Z,23.46
2016-05-02T10:20:57.876Z,23.48
2016-05-02T10:21:58.369Z,23.25
2016-05-02T10:22:57.753Z,23.19
2016-05-02T10:23:57.899Z,23.17
2016-05-02T10:24:57.764Z,22.42
2016-05-02T10:25:57.925Z,22.68
2016-05-02T10:26:57.758Z,23.35
2016-05-02T10:27:57.918Z,23.19
2016-05-02T10:28:57.923Z,23.35
2016-05-02T10:29:57.770Z,23.28
2016-05-02T10:30:57.914Z,23.12
2016-05-02T10:31:57.918Z,23.46
2016-05-02T10:32:57.921Z,23.88
2016-05-02T10:33:57.924Z,23.69
2016-05-02T10:34:57.927Z,23.68
2016-05-02T10:35:57.929Z,23.32
2016-05-02T10:36:57.948Z,23.17
2016-05-02T10:37:57.935Z,23
2016-05-02T10:38:57.938Z,23.02
2016-05-02T10:39:57.783Z,23.02
2016-05-02T10:40:57.943Z,22.92
2016-05-02T10:41:57.961Z,23.01
2016-05-02T10:42:57.949Z,23.13
2016-05-02T10:43:57.794Z,23.78
2016-05-02T10:44:57.813Z,23.63
2016-05-02T10:45:57.956Z,23.33
2016-05-02T10:46:57.959Z,23.39
2016-05-02T10:47:57.976Z,23.54
2016-05-02T10:48:57.980Z,23.6
2016-05-02T10:49:57.982Z,23.73
2016-05-02T10:50:57.845Z,23.73
2016-05-02T10:51:57.847Z,23.66
2016-05-02T10:52:57.990Z,23.39
2016-05-02T10:53:58.009Z,23.19
2016-05-02T10:54:58.011Z,23.01
2016-05-02T10:55:57.873Z,22.91
2016-05-02T10:56:57.861Z,22.65
2016-05-02T10:57:58.036Z,22.83
2016-05-02T10:58:57.867Z,23.54
2016-05-02T10:59:58.025Z,23.6
2016-05-02T11:00:57.887Z,23.76
2016-05-02T11:01:58.046Z,23.87
2016-05-02T11:02:58.049Z,23.88
2016-05-02T11:03:58.067Z,23.87
2016-05-02T11:04:58.039Z,23.78
2016-05-02T11:05:58.042Z,23.91
2016-05-02T11:06:58.435Z,24.13
2016-05-02T11:07:57.906Z,24.05
2016-05-02T11:08:58.065Z,23.88
2016-05-02T11:09:57.927Z,23.91
2016-05-02T11:10:58.085Z,23.76
2016-05-02T11:11:58.088Z,23.9
2016-05-02T11:12:58.092Z,23.94
2016-05-02T11:13:58.094Z,23.94
2016-05-02T11:14:58.097Z,23.97
2016-05-02T11:15:57.959Z,24.03
2016-05-02T11:16:58.118Z,24.02
2016-05-02T11:17:58.105Z,23.98
2016-05-02T11:18:58.123Z,23.97
2016-05-02T11:19:58.126Z,23.91
2016-05-02T11:20:58.129Z,23.84
2016-05-02T11:21:57.990Z,23.93
2016-05-02T11:22:58.142Z,23.97
2016-05-02T11:23:58.145Z,23.97
2016-05-02T11:24:58.163Z,24.06
2016-05-02T11:25:57.837Z,24.02
2016-05-02T11:26:58.168Z,23.97
2016-05-02T11:27:58.170Z,23.94
2016-05-02T11:28:58.189Z,24.08
2016-05-02T11:29:58.176Z,24.18
2016-05-02T11:30:58.194Z,24.09
2016-05-02T11:31:58.042Z,24.08
2016-05-02T11:32:58.200Z,24.21
2016-05-02T11:33:58.047Z,24.21
2016-05-02T11:34:58.049Z,24.09
2016-05-02T11:35:58.208Z,24.06
2016-05-02T11:36:58.320Z,24.09
2016-05-02T11:37:58.229Z,24.02
2016-05-02T11:38:58.075Z,24.09
2016-05-02T11:39:58.234Z,24.05
2016-05-02T11:40:58.253Z,24.18
2016-05-02T11:41:58.255Z,24.03
2016-05-02T11:42:58.241Z,24.03
2016-05-02T11:43:58.261Z,24.16
2016-05-02T11:44:58.107Z,24.16
2016-05-02T11:45:58.282Z,24.02
2016-05-02T11:46:58.285Z,23.93
2016-05-02T11:47:58.287Z,24.09
2016-05-02T11:48:58.290Z,24
2016-05-02T11:49:58.293Z,24.08
2016-05-02T11:50:58.295Z,24.05
2016-05-02T11:51:58.298Z,24.02
2016-05-02T11:52:58.316Z,23.93
2016-05-02T11:53:58.318Z,23.9
2016-05-02T11:54:58.321Z,23.94
2016-05-02T11:55:58.324Z,23.91
2016-05-02T11:56:58.326Z,23.88
2016-05-02T11:57:58.329Z,23.87
2016-05-02T11:58:58.348Z,23.93
2016-05-02T11:59:58.351Z,23.84
2016-05-02T12:00:58.197Z,23.69
2016-05-02T12:01:58.356Z,23.7
2016-05-02T12:02:58.203Z,23.68
2016-05-02T12:03:58.378Z,23.69
2016-05-02T12:04:58.364Z,23.88
2016-05-02T12:05:58.226Z,24
2016-05-02T12:06:58.386Z,23.98
2016-05-02T12:07:58.232Z,23.95
2016-05-02T12:08:58.391Z,23.98
2016-05-02T12:09:58.394Z,24.06
2016-05-02T12:10:58.411Z,24
2016-05-02T12:11:58.414Z,23.97
2016-05-02T12:12:58.448Z,23.88
2016-05-02T12:13:58.436Z,23.95
2016-05-02T12:14:58.422Z,24.02
2016-05-02T12:15:58.424Z,23.94
2016-05-02T12:16:58.443Z,23.76
2016-05-02T12:17:58.430Z,23.7
2016-05-02T12:18:58.293Z,23.75
2016-05-02T12:19:58.452Z,23.7
2016-05-02T12:20:58.298Z,23.38
2016-05-02T12:21:58.457Z,23.13
2016-05-02T12:22:58.303Z,23.23
2016-05-02T12:23:58.462Z,23.42
2016-05-02T12:24:58.479Z,23.39
2016-05-02T12:25:58.468Z,23.39
2016-05-02T12:26:58.470Z,23.66
2016-05-02T12:27:58.488Z,23.79
2016-05-02T12:28:58.319Z,23.7
2016-05-02T12:29:58.478Z,23.72
2016-05-02T12:30:58.496Z,23.6
2016-05-02T12:31:58.498Z,23.69
2016-05-02T12:32:58.502Z,23.6
2016-05-02T12:33:58.520Z,23.65
2016-05-02T12:34:58.522Z,23.58
2016-05-02T12:35:58.526Z,23.55
2016-05-02T12:36:58.747Z,23.66
2016-05-02T12:37:58.547Z,23.53
2016-05-02T12:38:58.534Z,23.4
2016-05-02T12:39:58.552Z,23.54
2016-05-02T12:40:58.539Z,23.6
2016-05-02T12:41:58.557Z,23.42
2016-05-02T12:42:58.560Z,23.04
2016-05-02T12:43:58.563Z,23.36
2016-05-02T12:44:58.566Z,23.16
2016-05-02T12:45:58.568Z,23.17
2016-05-02T12:46:58.571Z,23.16
2016-05-02T12:47:58.588Z,23.04
2016-05-02T12:48:58.577Z,23
2016-05-02T12:49:58.422Z,22.97
2016-05-02T12:50:58.582Z,23.16
2016-05-02T12:51:58.585Z,23.23
2016-05-02T12:52:58.634Z,23.07
2016-05-02T12:53:58.433Z,23.01
2016-05-02T12:54:58.607Z,23.22
2016-05-02T12:55:58.454Z,23.51
2016-05-02T12:56:58.613Z,23.53
2016-05-02T12:57:58.616Z,23.68
2016-05-02T12:58:58.604Z,23.69